createdAt,value
2023-03-13T00:06:14.530Z,6.60
2023-03-13T00:11:44.420Z,6.20
2023-03-13T00:28:08.363Z,6.00
2023-03-13T00:33:40.645Z,5.90
2023-03-13T01:01:14.459Z,5.40
2023-03-13T01:12:10.978Z,5.30
2023-03-13T01:28:36.532Z,5.00
2023-03-13T01:34:06.464Z,5.00
2023-03-13T01:50:31.767Z,4.50
2023-03-13T01:56:27.773Z,4.80
2023-03-13T02:02:00.628Z,4.30
2023-03-13T02:07:43.064Z,4.60
2023-03-13T02:13:15.185Z,4.40
2023-03-13T02:18:43.821Z,4.60
2023-03-13T02:24:25.342Z,4.50
2023-03-13T02:29:53.749Z,4.60
2023-03-13T02:35:24.039Z,4.60
2023-03-13T02:40:53.851Z,4.50
2023-03-13T02:51:58.191Z,4.50
2023-03-13T03:19:20.376Z,4.70
2023-03-13T03:24:48.368Z,4.70
2023-03-13T03:41:14.703Z,4.90
2023-03-13T03:46:42.562Z,4.90
2023-03-13T04:14:15.990Z,5.00
2023-03-13T04:30:42.204Z,5.10
2023-03-13T04:36:32.923Z,5.00
2023-03-13T04:42:25.035Z,5.10
2023-03-13T04:48:22.755Z,5.20
2023-03-13T04:59:43.079Z,5.80
2023-03-13T05:11:32.992Z,5.40
2023-03-13T05:17:27.098Z,5.40
2023-03-13T05:23:17.788Z,5.40
2023-03-13T05:51:43.811Z,5.70
2023-03-13T05:57:30.012Z,6.10
2023-03-13T06:20:23.124Z,6.40
2023-03-13T06:25:50.995Z,6.50
2023-03-13T06:42:15.382Z,7.00
2023-03-13T06:53:17.923Z,7.30
2023-03-13T06:58:50.002Z,7.70
2023-03-13T07:04:18.215Z,7.50
2023-03-13T07:26:15.882Z,8.20
2023-03-13T07:37:13.398Z,8.40
2023-03-13T07:42:42.410Z,8.50
2023-03-13T07:48:10.264Z,8.60
2023-03-13T07:53:38.358Z,8.60
2023-03-13T08:15:31.141Z,9.30
2023-03-13T08:21:03.041Z,9.70
2023-03-13T08:26:31.893Z,10.00
2023-03-13T08:53:54.349Z,10.40
2023-03-13T08:59:22.125Z,10.60
2023-03-13T09:15:46.006Z,11.90
2023-03-13T09:21:32.434Z,12.20
2023-03-13T09:37:58.887Z,12.70
2023-03-13T09:43:44.523Z,12.70
2023-03-13T09:49:36.499Z,12.70
2023-03-13T09:55:20.712Z,12.90
2023-03-13T10:00:57.809Z,13.50
2023-03-13T10:06:28.190Z,13.90
2023-03-13T10:12:11.769Z,14.30
2023-03-13T10:17:40.531Z,14.70
2023-03-13T10:23:15.415Z,14.90
2023-03-13T10:28:43.392Z,14.90
2023-03-13T10:34:14.003Z,15.40
2023-03-13T10:39:41.978Z,15.70
2023-03-13T10:45:17.338Z,15.80
2023-03-13T10:50:48.932Z,16.30
2023-03-13T10:56:26.461Z,16.20
2023-03-13T11:02:01.170Z,16.50
2023-03-13T11:07:38.373Z,16.90
2023-03-13T11:19:08.219Z,17.20
2023-03-13T11:24:45.579Z,17.10
2023-03-13T11:30:50.254Z,17.20
2023-03-13T11:36:33.863Z,17.50
2023-03-13T11:42:22.694Z,17.70
2023-03-13T11:48:20.141Z,17.80
2023-03-13T11:54:05.358Z,17.80
2023-03-13T11:59:48.098Z,18.20
2023-03-13T12:05:20.385Z,18.50
2023-03-13T12:11:17.187Z,18.70
2023-03-13T12:17:08.199Z,18.70
2023-03-13T12:34:16.642Z,18.70
2023-03-13T12:40:16.752Z,18.80
2023-03-13T12:46:11.001Z,18.70
2023-03-13T12:57:28.268Z,18.70
2023-03-13T13:03:17.718Z,19.00
2023-03-13T13:08:54.680Z,19.00
2023-03-13T13:14:22.468Z,20.50
2023-03-13T13:19:50.839Z,20.40
2023-03-13T13:30:58.085Z,21.00
2023-03-13T13:36:31.719Z,20.90
2023-03-13T13:47:32.469Z,20.70
2023-03-13T13:53:44.456Z,20.90
2023-03-13T13:59:21.412Z,22.10
2023-03-13T14:04:53.230Z,22.50
2023-03-13T14:10:40.890Z,23.70
2023-03-13T14:16:25.770Z,24.90
2023-03-13T14:22:07.067Z,26.30
2023-03-13T14:33:03.168Z,27.50
2023-03-13T14:38:32.975Z,28.70
2023-03-13T14:44:24.891Z,30.10
2023-03-13T14:50:21.175Z,29.90
2023-03-13T14:56:08.963Z,29.80
2023-03-13T15:01:36.947Z,29.70
2023-03-13T15:07:08.868Z,30.20
2023-03-13T15:12:44.062Z,30.00
2023-03-13T15:18:25.520Z,29.20
2023-03-13T15:24:13.072Z,28.90
2023-03-13T15:29:40.906Z,27.00
2023-03-13T15:35:29.996Z,25.30
2023-03-13T15:40:57.872Z,23.40
2023-03-13T15:46:26.743Z,22.40
2023-03-13T15:51:56.834Z,22.00
2023-03-13T15:57:27.559Z,21.50
2023-03-13T16:02:55.344Z,21.30
2023-03-13T16:08:35.160Z,21.80
2023-03-13T16:14:04.196Z,23.30
2023-03-13T16:30:33.804Z,21.60
2023-03-13T16:41:31.106Z,19.20
2023-03-13T16:47:05.973Z,18.70
2023-03-13T17:09:01.586Z,16.90
2023-03-13T17:30:53.474Z,15.20
2023-03-13T17:36:27.826Z,14.90
2023-03-13T18:09:21.846Z,13.50
2023-03-13T18:14:49.554Z,13.30
2023-03-13T18:20:24.620Z,13.20
2023-03-13T18:36:48.844Z,12.80
2023-03-13T18:42:17.546Z,12.70
2023-03-13T18:47:46.061Z,12.40
2023-03-13T18:53:14.959Z,12.50
2023-03-13T18:58:42.994Z,12.40
2023-03-13T19:04:10.815Z,12.20
2023-03-13T19:09:43.465Z,12.20
2023-03-13T19:15:12.696Z,12.00
2023-03-13T19:20:40.542Z,11.70
2023-03-13T19:26:15.601Z,11.80
2023-03-13T19:31:44.462Z,11.70
2023-03-13T19:37:14.285Z,11.60
2023-03-13T19:42:42.036Z,11.50
2023-03-13T19:48:10.252Z,11.40
2023-03-13T19:59:15.748Z,10.90
2023-03-13T20:04:45.909Z,11.00
2023-03-13T20:10:14.009Z,10.80
2023-03-13T20:15:41.855Z,10.90
2023-03-13T20:21:10.639Z,10.60
2023-03-13T20:26:38.635Z,10.80
2023-03-13T20:43:04.659Z,10.10
2023-03-13T21:04:57.710Z,10.20
2023-03-13T21:10:25.599Z,10.00
2023-03-13T21:16:01.625Z,9.90
2023-03-13T21:21:29.771Z,10.30
2023-03-13T21:26:58.998Z,9.90
2023-03-13T21:32:28.065Z,9.80
2023-03-13T21:43:25.459Z,9.80
2023-03-13T21:48:53.399Z,10.00
2023-03-13T21:59:49.492Z,10.60
2023-03-13T22:05:17.733Z,10.90
2023-03-13T22:10:50.672Z,11.10
2023-03-13T22:16:21.149Z,11.20
2023-03-13T22:21:49.718Z,11.20
2023-03-13T22:27:19.784Z,11.40
2023-03-13T22:32:48.491Z,11.50
2023-03-13T22:38:17.673Z,11.60
2023-03-13T22:43:46.922Z,11.80
2023-03-13T23:05:45.954Z,11.80
2023-03-13T23:11:14.140Z,11.80
2023-03-13T23:22:17.896Z,11.50
2023-03-13T23:33:14.206Z,11.40
2023-03-13T23:44:12.426Z,11.20
2023-03-13T23:49:40.712Z,11.20
2023-03-13T23:55:09.707Z,11.10
